createdAt,value
2023-02-15T00:01:13.054Z,60.30
2023-02-15T00:04:22.758Z,76.30
2023-02-15T00:07:29.084Z,49.90
2023-02-15T00:13:43.327Z,51.40
2023-02-15T00:16:51.111Z,51.50
2023-02-15T00:19:57.339Z,54.80
2023-02-15T00:23:04.008Z,46.20
2023-02-15T00:26:12.649Z,41.50
2023-02-15T00:29:20.823Z,40.20
2023-02-15T00:32:27.045Z,39.00
2023-02-15T00:35:33.289Z,46.60
2023-02-15T00:38:40.275Z,47.00
2023-02-15T00:41:46.643Z,49.90
2023-02-15T00:47:57.394Z,43.90
2023-02-15T00:51:04.064Z,49.60
2023-02-15T00:54:10.303Z,44.20
2023-02-15T00:57:16.579Z,43.90
2023-02-15T01:03:27.447Z,45.40
2023-02-15T01:06:33.584Z,47.40
2023-02-15T01:09:39.774Z,42.10
2023-02-15T01:12:45.915Z,46.40
2023-02-15T01:15:57.198Z,36.90
2023-02-15T01:19:04.438Z,41.50
2023-02-15T01:22:10.745Z,34.30
2023-02-15T01:28:21.547Z,41.00
2023-02-15T01:31:27.952Z,39.70
2023-02-15T01:34:34.566Z,37.40
2023-02-15T01:37:41.416Z,37.50
2023-02-15T01:40:47.692Z,31.10
2023-02-15T01:43:56.235Z,30.00
2023-02-15T01:47:02.957Z,27.90
2023-02-15T01:50:15.226Z,28.80
2023-02-15T01:53:26.767Z,26.10
2023-02-15T01:56:37.054Z,29.70
2023-02-15T01:59:45.650Z,31.00
2023-02-15T02:02:56.299Z,30.20
2023-02-15T02:06:02.815Z,28.30
2023-02-15T02:09:09.610Z,28.40
2023-02-15T02:12:16.639Z,27.40
2023-02-15T02:15:29.609Z,26.70
2023-02-15T02:18:48.808Z,24.60
2023-02-15T02:22:34.942Z,27.80
2023-02-15T02:26:27.760Z,24.20
2023-02-15T02:30:07.247Z,26.60
2023-02-15T02:33:27.380Z,26.40
2023-02-15T02:36:42.968Z,24.40
2023-02-15T02:39:58.733Z,26.30
2023-02-15T02:43:13.113Z,26.70
2023-02-15T02:46:23.246Z,24.10
2023-02-15T02:49:37.324Z,26.60
2023-02-15T02:52:46.181Z,24.00
2023-02-15T02:55:57.724Z,24.60
2023-02-15T02:59:07.990Z,26.00
2023-02-15T03:02:18.959Z,25.60
2023-02-15T03:05:29.495Z,25.60
2023-02-15T03:08:39.169Z,26.90
2023-02-15T03:11:47.180Z,28.10
2023-02-15T03:14:57.699Z,27.40
2023-02-15T03:18:05.654Z,25.30
2023-02-15T03:21:23.279Z,26.90
2023-02-15T03:24:34.904Z,23.80
2023-02-15T03:27:44.389Z,29.10
2023-02-15T03:30:55.895Z,24.70
2023-02-15T03:34:05.504Z,24.70
2023-02-15T03:37:18.118Z,24.50
2023-02-15T03:40:47.140Z,28.50
2023-02-15T03:43:59.035Z,27.70
2023-02-15T03:47:11.590Z,25.80
2023-02-15T03:50:40.586Z,25.10
2023-02-15T03:53:48.809Z,27.60
2023-02-15T03:57:10.464Z,25.70
2023-02-15T04:00:39.217Z,26.70
2023-02-15T04:03:47.741Z,25.80
2023-02-15T04:06:54.287Z,26.10
2023-02-15T04:10:17.887Z,23.90
2023-02-15T04:13:25.325Z,26.80
2023-02-15T04:16:32.534Z,24.50
2023-02-15T04:19:56.553Z,25.40
2023-02-15T04:23:20.116Z,27.40
2023-02-15T04:26:26.185Z,26.30
2023-02-15T04:29:33.368Z,29.50
2023-02-15T04:32:39.986Z,25.50
2023-02-15T04:35:47.433Z,25.80
2023-02-15T04:38:53.981Z,25.70
2023-02-15T04:42:00.229Z,25.20
2023-02-15T04:45:07.675Z,28.60
2023-02-15T04:48:13.778Z,26.10
2023-02-15T04:51:19.983Z,27.00
2023-02-15T04:54:26.436Z,27.40
2023-02-15T04:57:32.729Z,27.30
2023-02-15T05:03:43.885Z,27.40
2023-02-15T05:06:50.112Z,27.80
2023-02-15T05:09:56.371Z,27.50
2023-02-15T05:13:02.585Z,27.20
2023-02-15T05:16:09.214Z,26.50
2023-02-15T05:19:15.632Z,27.00
2023-02-15T05:22:21.908Z,28.50
2023-02-15T05:28:50.086Z,28.10
2023-02-15T05:31:56.393Z,26.30
2023-02-15T05:35:02.796Z,26.80
2023-02-15T05:41:14.128Z,27.50
2023-02-15T05:44:20.586Z,28.00
2023-02-15T05:47:26.816Z,26.20
2023-02-15T05:50:33.258Z,24.10
2023-02-15T05:53:40.762Z,26.00
2023-02-15T05:56:47.016Z,27.60
2023-02-15T05:59:53.276Z,26.20
2023-02-15T06:06:05.665Z,23.80
2023-02-15T06:09:12.267Z,24.80
2023-02-15T06:12:18.458Z,26.60
2023-02-15T06:15:24.769Z,25.80
2023-02-15T06:21:35.443Z,25.60
2023-02-15T06:24:43.415Z,25.80
2023-02-15T06:27:50.375Z,23.70
2023-02-15T06:30:56.733Z,22.30
2023-02-15T06:37:09.825Z,22.70
2023-02-15T06:40:17.281Z,22.50
2023-02-15T06:43:23.735Z,20.40
2023-02-15T06:46:30.391Z,21.40
2023-02-15T06:49:36.596Z,20.90
2023-02-15T06:52:42.854Z,21.40
2023-02-15T06:58:53.849Z,23.90
2023-02-15T07:02:00.119Z,25.00
2023-02-15T07:05:06.565Z,26.30
2023-02-15T07:08:12.926Z,20.80
2023-02-15T07:11:36.494Z,23.80
2023-02-15T07:14:42.812Z,22.20
2023-02-15T07:20:53.600Z,20.60
2023-02-15T07:24:01.646Z,21.10
2023-02-15T07:27:08.481Z,20.50
2023-02-15T07:30:18.108Z,20.50
2023-02-15T07:33:28.181Z,21.80
2023-02-15T07:36:34.505Z,21.20
2023-02-15T07:42:45.313Z,21.60
2023-02-15T07:48:56.468Z,23.20
2023-02-15T07:52:04.300Z,22.50
2023-02-15T07:55:13.817Z,22.80
2023-02-15T07:58:20.654Z,26.50
2023-02-15T08:01:29.913Z,24.40
2023-02-15T08:04:36.180Z,25.20
2023-02-15T08:07:42.288Z,27.00
2023-02-15T08:11:06.124Z,30.80
2023-02-15T08:14:13.882Z,31.30
2023-02-15T08:17:20.115Z,29.60
2023-02-15T08:20:26.293Z,29.00
2023-02-15T08:23:32.588Z,27.70
2023-02-15T08:29:44.094Z,29.40
2023-02-15T08:32:50.323Z,27.50
2023-02-15T08:35:56.602Z,29.10
2023-02-15T08:39:05.155Z,30.00
2023-02-15T08:42:11.612Z,29.80
2023-02-15T08:45:18.079Z,31.50
2023-02-15T08:48:24.356Z,30.80
2023-02-15T08:51:31.905Z,29.70
2023-02-15T08:54:38.227Z,29.50
2023-02-15T09:00:52.263Z,27.80
2023-02-15T09:07:06.434Z,27.50
2023-02-15T09:10:13.525Z,28.40
2023-02-15T09:13:19.760Z,27.70
2023-02-15T09:16:28.002Z,26.10
2023-02-15T09:19:34.237Z,27.10
2023-02-15T09:22:40.505Z,26.80
2023-02-15T09:28:54.142Z,29.00
2023-02-15T09:32:00.377Z,27.50
2023-02-15T09:38:13.147Z,25.70
2023-02-15T09:41:39.484Z,26.80
2023-02-15T09:45:06.377Z,24.10
2023-02-15T09:48:31.969Z,25.10
2023-02-15T09:51:55.740Z,25.90
2023-02-15T09:55:13.263Z,27.10
2023-02-15T09:58:28.223Z,24.50
2023-02-15T10:01:45.490Z,26.30
2023-02-15T10:05:06.609Z,25.90
2023-02-15T10:08:34.334Z,23.20
2023-02-15T10:11:51.716Z,25.10
2023-02-15T10:15:14.498Z,24.30
2023-02-15T10:18:36.761Z,22.10
2023-02-15T10:21:57.375Z,24.10
2023-02-15T10:25:22.120Z,24.70
2023-02-15T10:28:37.791Z,25.40
2023-02-15T10:31:51.817Z,22.30
2023-02-15T10:35:03.274Z,22.70
2023-02-15T10:38:26.910Z,21.80
2023-02-15T10:41:47.117Z,23.20
2023-02-15T10:45:08.275Z,27.90
2023-02-15T10:48:56.786Z,24.40
2023-02-15T10:52:19.463Z,24.30
2023-02-15T10:55:34.704Z,32.60
2023-02-15T10:59:05.483Z,27.40
2023-02-15T11:02:23.051Z,22.90
2023-02-15T11:05:50.322Z,27.30
2023-02-15T11:09:02.194Z,21.90
2023-02-15T11:12:13.794Z,82.60
2023-02-15T11:15:28.590Z,32.10
2023-02-15T11:18:38.340Z,23.90
2023-02-15T11:21:48.168Z,22.90
2023-02-15T11:24:58.708Z,23.80
2023-02-15T11:28:13.260Z,22.30
2023-02-15T11:31:22.031Z,21.70
2023-02-15T11:34:34.124Z,23.00
2023-02-15T11:37:50.544Z,25.00
2023-02-15T11:40:59.785Z,22.20
2023-02-15T11:44:16.284Z,23.70
2023-02-15T11:47:22.597Z,23.90
2023-02-15T11:53:39.570Z,23.90
2023-02-15T11:56:46.488Z,24.10
2023-02-15T11:59:58.656Z,23.90
2023-02-15T12:03:18.615Z,22.50
2023-02-15T12:06:30.036Z,24.90
2023-02-15T12:09:41.228Z,21.50
2023-02-15T12:12:47.857Z,23.50
2023-02-15T12:15:58.102Z,21.40
2023-02-15T12:19:05.296Z,21.30
2023-02-15T12:22:25.905Z,23.80
2023-02-15T12:25:38.692Z,23.30
2023-02-15T12:28:46.876Z,24.10
2023-02-15T12:31:54.647Z,25.90
2023-02-15T12:35:10.736Z,22.00
2023-02-15T12:41:31.774Z,24.20
2023-02-15T12:47:43.336Z,22.70
2023-02-15T12:50:57.490Z,23.30
2023-02-15T12:54:23.427Z,24.60
2023-02-15T12:57:32.496Z,23.90
2023-02-15T13:00:38.966Z,22.30
2023-02-15T13:04:00.278Z,24.80
2023-02-15T13:07:06.800Z,23.50
2023-02-15T13:10:25.511Z,22.90
2023-02-15T13:13:34.352Z,23.80
2023-02-15T13:16:41.995Z,22.70
2023-02-15T13:19:51.008Z,22.70
2023-02-15T13:23:01.986Z,23.00
2023-02-15T13:26:13.496Z,23.50
2023-02-15T13:29:24.960Z,22.50
2023-02-15T13:32:37.311Z,24.00
2023-02-15T13:35:49.077Z,22.80
2023-02-15T13:39:05.145Z,22.50
2023-02-15T13:42:22.699Z,22.80
2023-02-15T13:45:40.954Z,22.70
2023-02-15T13:48:56.930Z,22.20
2023-02-15T13:55:31.479Z,20.90
2023-02-15T13:59:07.049Z,20.20
2023-02-15T14:05:46.670Z,19.90
2023-02-15T14:09:08.028Z,19.80
2023-02-15T14:12:37.229Z,19.70
2023-02-15T14:15:49.736Z,18.70
2023-02-15T14:19:05.999Z,20.90
2023-02-15T14:22:22.871Z,19.60
2023-02-15T14:25:32.989Z,18.90
2023-02-15T14:28:46.032Z,21.60
2023-02-15T14:31:56.279Z,20.80
2023-02-15T14:35:04.413Z,21.10
2023-02-15T14:38:22.784Z,21.70
2023-02-15T14:41:38.862Z,19.80
2023-02-15T14:44:52.099Z,20.70
2023-02-15T14:48:06.680Z,20.30
2023-02-15T14:51:34.212Z,19.50
2023-02-15T14:54:59.364Z,19.70
2023-02-15T14:58:13.018Z,20.20
2023-02-15T15:01:27.319Z,20.70
2023-02-15T15:04:38.310Z,44.90
2023-02-15T15:07:49.870Z,38.60
2023-02-15T15:10:56.621Z,43.10
2023-02-15T15:14:05.224Z,41.70
2023-02-15T15:17:15.540Z,37.40
2023-02-15T15:20:46.913Z,36.50
2023-02-15T15:23:53.149Z,34.80
2023-02-15T15:31:00.743Z,37.00
2023-02-15T15:34:39.097Z,49.30
2023-02-15T15:38:26.927Z,51.90
2023-02-15T15:41:44.399Z,48.60
2023-02-15T15:45:28.160Z,55.00
2023-02-15T15:48:39.203Z,54.90
2023-02-15T15:51:47.283Z,51.20
2023-02-15T15:54:57.869Z,45.70
2023-02-15T15:58:08.154Z,38.10
2023-02-15T16:01:15.956Z,36.80
2023-02-15T16:04:30.892Z,39.10
2023-02-15T16:07:37.176Z,40.40
2023-02-15T16:13:49.479Z,35.30
2023-02-15T16:16:59.147Z,32.80
2023-02-15T16:20:09.891Z,34.80
2023-02-15T16:23:32.567Z,43.10
2023-02-15T16:26:53.870Z,38.10
2023-02-15T16:30:00.212Z,35.80
2023-02-15T16:36:22.756Z,31.10
2023-02-15T16:39:29.337Z,40.00
2023-02-15T16:42:36.887Z,33.60
2023-02-15T16:45:43.437Z,36.30
2023-02-15T16:48:52.822Z,33.30
2023-02-15T16:52:06.458Z,35.30
2023-02-15T16:55:24.490Z,39.40
2023-02-15T16:58:42.092Z,53.80
2023-02-15T17:01:49.034Z,53.70
2023-02-15T17:05:19.478Z,49.00
2023-02-15T17:08:29.705Z,38.30
2023-02-15T17:11:42.403Z,45.30
2023-02-15T17:14:48.648Z,39.80
2023-02-15T17:17:57.256Z,33.90
2023-02-15T17:21:14.414Z,31.80
2023-02-15T17:24:25.277Z,32.70
2023-02-15T17:27:34.123Z,31.90
2023-02-15T17:30:40.866Z,31.50
2023-02-15T17:33:47.660Z,30.10
2023-02-15T17:37:03.350Z,34.40
2023-02-15T17:40:22.424Z,34.10
2023-02-15T17:43:28.674Z,36.90
2023-02-15T17:46:38.137Z,37.00
2023-02-15T17:49:44.948Z,37.00
2023-02-15T17:52:52.045Z,38.10
2023-02-15T17:55:58.293Z,35.70
2023-02-15T17:59:07.642Z,37.60
2023-02-15T18:02:32.712Z,37.70
2023-02-15T18:05:56.592Z,35.60
2023-02-15T18:09:20.283Z,38.30
2023-02-15T18:12:28.831Z,38.70
2023-02-15T18:15:36.075Z,39.40
2023-02-15T18:18:42.614Z,40.70
2023-02-15T18:21:49.518Z,45.80
2023-02-15T18:24:56.184Z,47.90
2023-02-15T18:28:02.449Z,44.40
2023-02-15T18:31:08.767Z,47.00
2023-02-15T18:37:34.312Z,47.90
2023-02-15T18:40:40.546Z,66.40
2023-02-15T18:43:47.139Z,71.40
2023-02-15T18:46:53.479Z,64.40
2023-02-15T18:53:06.612Z,58.20
2023-02-15T18:56:18.646Z,48.70
2023-02-15T18:59:25.767Z,57.80
2023-02-15T19:02:32.064Z,49.80
2023-02-15T19:05:40.711Z,46.20
2023-02-15T19:08:48.965Z,52.80
2023-02-15T19:11:57.554Z,68.20
2023-02-15T19:15:03.825Z,52.40
2023-02-15T19:21:18.897Z,48.40
2023-02-15T19:24:31.321Z,49.40
2023-02-15T19:27:39.258Z,49.00
2023-02-15T19:30:45.690Z,48.40
2023-02-15T19:33:52.116Z,47.80
2023-02-15T19:40:04.439Z,44.00
2023-02-15T19:43:18.683Z,48.20
2023-02-15T19:46:25.963Z,45.50
2023-02-15T19:49:32.303Z,54.30
2023-02-15T19:52:38.966Z,53.70
2023-02-15T19:55:45.291Z,52.30
2023-02-15T20:01:57.863Z,60.60
2023-02-15T20:05:04.239Z,57.50
2023-02-15T20:11:16.909Z,63.60
2023-02-15T20:14:24.116Z,56.70
2023-02-15T20:17:30.369Z,56.60
2023-02-15T20:20:43.457Z,61.10
2023-02-15T20:23:49.768Z,60.10
2023-02-15T20:30:00.677Z,69.90
2023-02-15T20:33:07.663Z,72.30
2023-02-15T20:36:17.385Z,69.90
2023-02-15T20:39:23.867Z,65.60
2023-02-15T20:45:35.124Z,60.10
2023-02-15T20:48:41.407Z,51.50
2023-02-15T20:51:48.220Z,49.70
2023-02-15T20:54:54.477Z,45.70
2023-02-15T20:58:01.131Z,48.20
2023-02-15T21:01:12.582Z,45.80
2023-02-15T21:04:23.269Z,48.30
2023-02-15T21:07:29.512Z,44.80
2023-02-15T21:10:37.292Z,46.30
2023-02-15T21:13:43.613Z,58.70
2023-02-15T21:19:54.838Z,62.30
2023-02-15T21:26:08.371Z,69.70
2023-02-15T21:29:17.924Z,64.80
2023-02-15T21:32:24.314Z,67.50
2023-02-15T21:35:31.645Z,71.80
2023-02-15T21:38:38.428Z,77.60
2023-02-15T21:42:15.535Z,70.90
2023-02-15T21:45:39.613Z,63.70
2023-02-15T21:48:46.471Z,69.30
2023-02-15T21:52:09.970Z,69.30
2023-02-15T21:55:18.796Z,71.60
2023-02-15T21:58:27.176Z,73.00
2023-02-15T22:01:33.650Z,67.40
2023-02-15T22:04:40.362Z,77.30
2023-02-15T22:07:47.087Z,80.60
2023-02-15T22:10:54.968Z,87.90
2023-02-15T22:14:01.178Z,84.20
2023-02-15T22:17:16.541Z,79.10
2023-02-15T22:20:24.753Z,79.40
2023-02-15T22:23:31.140Z,79.00
2023-02-15T22:29:41.988Z,73.50
2023-02-15T22:35:52.796Z,64.60
2023-02-15T22:42:04.218Z,73.30
2023-02-15T22:45:20.798Z,72.40
2023-02-15T22:48:27.091Z,77.20
2023-02-15T22:54:37.954Z,72.70
2023-02-15T23:00:48.728Z,65.50
2023-02-15T23:03:54.949Z,53.70
2023-02-15T23:07:01.432Z,54.70
2023-02-15T23:10:21.213Z,55.50
2023-02-15T23:13:31.408Z,54.70
2023-02-15T23:16:37.617Z,55.00
2023-02-15T23:19:43.963Z,57.30
2023-02-15T23:25:54.740Z,55.80
2023-02-15T23:32:06.875Z,65.50
2023-02-15T23:35:17.105Z,75.40
2023-02-15T23:38:29.294Z,74.70
2023-02-15T23:41:35.645Z,82.40
2023-02-15T23:44:44.044Z,74.60
2023-02-15T23:48:08.175Z,76.20
2023-02-15T23:51:14.553Z,71.50
2023-02-15T23:57:25.821Z,85.00
